Time;durP1;ratioP1;P1;durP2;ratioP2;P2;SDS_P1;SDS_P2;PMS_P1;PMS_P2;Temp;Humidity;BMP_temperature;BMP_pressure;BME280_temperature;BME280_humidity;BME280_pressure;Samples;Min_cycle;Max_cycle;Signal;HPM_P1;HPM_P2
2022/06/03 00:01:59;;;;;;;8.52;4.85;;;;;;;19.31;74.91;94928.84;5053426;28;20698;-76
2022/06/03 00:04:49;;;;;;;8.95;4.85;;;;;;;19.44;74.26;94932.09;5053712;28;20228;-76
2022/06/03 00:07:31;;;;;;;10.07;4.13;;;;;;;19.43;74.45;94925.03;5053818;28;20215;-76
2022/06/03 00:10:23;;;;;;;7.18;3.83;;;;;;;19.15;75.00;94931.78;5041386;28;20241;-78
2022/06/03 00:13:02;;;;;;;7.22;3.25;;;;;;;19.26;74.62;94931.16;5053849;28;20258;-75
2022/06/03 00:15:59;;;;;;;5.22;3.80;;;;;;;19.25;74.68;94926.81;5053350;28;20187;-77
2022/06/03 00:18:50;;;;;;;8.55;4.57;;;;;;;19.30;74.45;94931.94;5032481;28;20638;-77
2022/06/03 00:21:33;;;;;;;7.30;4.80;;;;;;;19.25;74.74;94929.56;5041511;28;20272;-77
2022/06/03 00:24:13;;;;;;;7.25;4.82;;;;;;;19.25;74.98;94929.56;5053333;28;20230;-77
2022/06/03 00:26:58;;;;;;;5.72;2.92;;;;;;;19.23;75.02;94931.88;5053908;28;20239;-78
2022/06/03 00:29:38;;;;;;;8.38;3.10;;;;;;;19.23;74.53;94926.41;5041029;28;20227;-78
2022/06/03 00:32:36;;;;;;;4.55;3.35;;;;;;;19.20;74.62;94924.38;5053509;28;20253;-78
2022/06/03 00:35:27;;;;;;;6.70;3.75;;;;;;;19.15;74.57;94923.56;5052746;28;20232;-78
2022/06/03 00:37:58;;;;;;;5.35;4.20;;;;;;;19.17;74.77;94921.22;5053331;28;20196;-77
2022/06/03 00:40:46;;;;;;;6.57;4.47;;;;;;;19.09;75.01;94922.31;5053452;28;20231;-77
2022/06/03 00:43:38;;;;;;;6.90;5.13;;;;;;;19.06;75.36;94928.56;5055269;28;20203;-77
2022/06/03 00:46:27;;;;;;;6.07;3.28;;;;;;;19.03;75.25;94928.50;5059974;28;20613;-77
2022/06/03 00:49:08;;;;;;;6.47;3.50;;;;;;;18.92;75.80;94933.88;5032824;28;20264;-77
2022/06/03 00:52:18;;;;;;;5.22;3.30;;;;;;;18.83;76.03;94927.09;5050130;28;20257;-77
2022/06/03 00:55:05;;;;;;;5.20;3.53;;;;;;;18.80;76.44;94923.13;5052943;28;20242;-77
2022/06/03 00:57:53;;;;;;;10.00;4.03;;;;;;;18.59;78.14;94920.88;5053166;28;20238;-77
2022/06/03 01:00:25;;;;;;;7.60;3.90;;;;;;;18.62;78.13;94919.34;5042577;28;20228;-77
2022/06/03 01:03:13;;;;;;;6.40;3.70;;;;;;;18.65;78.44;94918.59;5052245;28;20232;-77
2022/06/03 01:06:13;;;;;;;7.80;4.30;;;;;;;18.58;78.53;94911.09;5052833;28;20711;-77
2022/06/03 01:08:51;;;;;;;6.82;3.75;;;;;;;18.59;78.05;94918.13;5049822;28;20219;-77
2022/06/03 01:11:30;;;;;;;9.07;3.38;;;;;;;18.63;77.80;94910.75;5052006;28;20245;-77
2022/06/03 01:14:06;;;;;;;5.38;3.20;;;;;;;18.62;77.93;94911.91;5052259;28;20234;-77
2022/06/03 01:16:57;;;;;;;6.63;4.30;;;;;;;18.62;77.65;94909.16;5052761;28;20282;-77
2022/06/03 01:19:45;;;;;;;7.95;3.38;;;;;;;18.65;77.41;94908.44;5052475;28;20227;-77
2022/06/03 01:22:36;;;;;;;5.63;2.97;;;;;;;18.65;76.60;94913.13;5052493;28;20215;-77
2022/06/03 01:25:24;;;;;;;9.13;5.03;;;;;;;18.63;76.98;94901.72;5052912;28;20195;-77
2022/06/03 01:28:35;;;;;;;9.25;3.75;;;;;;;18.50;77.55;94911.31;5041943;28;20236;-77
2022/06/03 01:31:24;;;;;;;8.27;3.55;;;;;;;18.36;78.28;94912.69;5049608;28;20211;-77
2022/06/03 01:34:11;;;;;;;5.03;3.58;;;;;;;18.32;78.33;94902.81;5051567;28;20571;-77
2022/06/03 01:37:04;;;;;;;8.35;4.55;;;;;;;18.31;78.11;94907.50;5052536;28;20195;-77
2022/06/03 01:39:59;;;;;;;7.32;4.07;;;;;;;18.23;78.61;94914.06;5051890;28;20819;-77
2022/06/03 01:43:14;;;;;;;6.90;3.45;;;;;;;18.25;78.47;94922.72;5040356;28;20285;-77
2022/06/03 01:46:09;;;;;;;13.38;3.50;;;;;;;18.18;78.60;94913.59;5041045;28;20333;-77
2022/06/03 01:48:53;;;;;;;8.13;4.90;;;;;;;18.11;79.09;94914.28;5029346;28;20226;-77
2022/06/03 01:51:44;;;;;;;8.23;3.72;;;;;;;18.03;79.30;94912.59;5052317;28;20250;-77
2022/06/03 01:54:36;;;;;;;5.85;3.35;;;;;;;18.04;79.27;94922.41;5052292;28;20235;-77
2022/06/03 01:57:25;;;;;;;13.38;4.82;;;;;;;18.07;79.16;94919.69;5041462;28;20713;-77
2022/06/03 02:00:24;;;;;;;6.32;4.32;;;;;;;18.08;79.58;94920.50;5049684;28;20273;-77
2022/06/03 02:03:12;;;;;;;5.57;4.00;;;;;;;18.01;79.24;94923.13;5041049;28;20228;-77
2022/06/03 02:06:16;;;;;;;6.15;3.45;;;;;;;17.96;79.79;94920.69;5051605;28;20196;-77
2022/06/03 02:09:18;;;;;;;8.43;4.38;;;;;;;17.91;80.71;94926.47;5024441;28;20207;-77
2022/06/03 02:12:17;;;;;;;7.22;4.57;;;;;;;17.89;81.15;94926.88;5041857;28;20223;-77
2022/06/03 02:15:30;;;;;;;6.13;4.10;;;;;;;17.90;81.60;94927.66;4992918;28;20624;-77
2022/06/03 02:18:40;;;;;;;10.70;6.50;;;;;;;17.86;82.58;94933.06;5023643;28;20235;-77
2022/06/03 02:21:28;;;;;;;6.35;4.32;;;;;;;17.63;83.58;94935.78;5037967;28;20219;-77
2022/06/03 02:24:29;;;;;;;9.48;4.53;;;;;;;17.60;83.23;94925.56;5051034;28;20601;-78
2022/06/03 02:27:32;;;;;;;7.63;4.53;;;;;;;17.68;82.92;94926.50;5051444;28;20232;-77
2022/06/03 02:30:25;;;;;;;9.68;4.72;;;;;;;17.70;82.98;94930.44;5051642;28;20195;-77
2022/06/03 02:33:30;;;;;;;7.20;4.82;;;;;;;17.68;82.99;94923.75;5039430;28;20222;-77
2022/06/03 02:36:39;;;;;;;5.53;4.10;;;;;;;17.69;83.05;94928.88;5039023;28;20823;-77
2022/06/03 02:39:24;;;;;;;10.82;5.28;;;;;;;17.73;82.85;94935.22;5038758;28;20800;-77
2022/06/03 02:42:10;;;;;;;7.03;4.28;;;;;;;17.70;82.80;94935.94;5051288;28;20198;-77
2022/06/03 02:45:22;;;;;;;8.35;4.68;;;;;;;17.57;83.54;94948.19;5050792;28;20191;-77
2022/06/03 02:48:16;;;;;;;9.88;4.53;;;;;;;17.59;82.82;94940.41;4999255;28;20286;-77
2022/06/03 02:51:13;;;;;;;6.40;4.30;;;;;;;17.75;82.40;94943.88;5040357;28;20689;-77
2022/06/03 02:54:16;;;;;;;6.78;3.88;;;;;;;17.79;81.71;94945.84;5037108;28;20794;-77
2022/06/03 02:56:55;;;;;;;7.53;4.43;;;;;;;17.92;81.57;94947.25;5050895;28;20714;-77
2022/06/03 02:59:46;;;;;;;6.63;4.05;;;;;;;17.97;81.65;94949.69;5050667;28;20303;-77
2022/06/03 03:02:38;;;;;;;7.95;5.40;;;;;;;17.94;81.96;94951.22;5050382;28;20196;-77
2022/06/03 03:05:20;;;;;;;6.43;4.85;;;;;;;18.05;81.86;94945.91;5039316;28;20245;-77
2022/06/03 03:08:31;;;;;;;6.13;4.70;;;;;;;18.27;81.76;94947.84;5050642;28;20271;-78
2022/06/03 03:11:31;;;;;;;11.85;6.03;;;;;;;18.78;80.33;94950.16;5005631;28;20234;-76
2022/06/03 03:14:27;;;;;;;7.78;4.72;;;;;;;19.48;77.64;94944.72;5050753;28;20242;-76
2022/06/03 03:17:19;;;;;;;8.38;4.95;;;;;;;20.44;74.13;94937.38;5051150;28;20357;-76
2022/06/03 03:20:19;;;;;;;8.45;3.85;;;;;;;21.18;70.81;94928.72;5040129;28;20285;-76
2022/06/03 03:23:17;;;;;;;6.18;4.30;;;;;;;21.59;68.78;94936.78;5037026;28;20195;-77
2022/06/03 03:25:59;;;;;;;8.68;4.28;;;;;;;22.22;66.73;94925.03;5018225;28;20698;-77
2022/06/03 03:28:56;;;;;;;11.25;4.60;;;;;;;22.65;65.05;94931.31;5050924;28;20228;-78
2022/06/03 03:31:44;;;;;;;9.80;5.75;;;;;;;23.30;63.05;94932.72;5050811;28;20287;-78
2022/06/03 03:34:24;;;;;;;6.57;4.18;;;;;;;23.62;61.47;94934.56;5040359;28;20970;-78
2022/06/03 03:37:12;;;;;;;9.98;4.97;;;;;;;24.55;58.58;94935.50;5054448;28;20898;-78
2022/06/03 03:40:16;;;;;;;9.55;4.05;;;;;;;24.35;58.72;94945.53;5047345;28;20580;-78
2022/06/03 03:43:19;;;;;;;7.97;5.63;;;;;;;25.57;56.36;94951.41;5045273;28;20199;-79
2022/06/03 03:46:18;;;;;;;8.82;5.15;;;;;;;25.23;56.26;94941.13;5053667;28;20199;-77
2022/06/03 03:49:19;;;;;;;8.00;5.00;;;;;;;26.01;54.09;94939.34;5041922;28;20203;-77
2022/06/03 03:52:14;;;;;;;10.05;5.60;;;;;;;26.36;53.25;94936.06;5054195;28;20191;-77
2022/06/03 03:55:11;;;;;;;7.20;5.22;;;;;;;26.97;52.09;94935.78;5053874;28;20188;-77
2022/06/03 03:58:17;;;;;;;12.10;5.13;;;;;;;27.30;50.40;94927.63;5053065;28;20228;-78
2022/06/03 04:01:18;;;;;;;9.00;5.15;;;;;;;28.29;48.84;94945.78;5051153;28;20971;-78
2022/06/03 04:04:21;;;;;;;7.75;4.95;;;;;;;28.01;49.22;94949.22;5044352;28;20195;-78
2022/06/03 04:07:20;;;;;;;6.85;5.13;;;;;;;28.85;47.05;94942.03;4995085;28;20229;-78
2022/06/03 04:10:32;;;;;;;7.72;4.88;;;;;;;29.29;46.04;94932.09;5052757;28;20239;-79
2022/06/03 04:13:32;;;;;;;10.95;5.40;;;;;;;29.45;45.70;94929.25;5037425;28;20246;-79
2022/06/03 04:16:28;;;;;;;10.05;4.60;;;;;;;29.77;45.32;94935.94;5053507;28;20269;-80
2022/06/03 04:19:28;;;;;;;7.97;4.85;;;;;;;30.20;44.30;94927.06;5053800;28;20223;-78
2022/06/03 04:22:16;;;;;;;7.10;5.00;;;;;;;29.93;44.62;94933.06;5052073;28;20239;-78
2022/06/03 04:25:26;;;;;;;10.80;5.03;;;;;;;29.81;44.96;94939.38;5041736;28;20227;-79
2022/06/03 04:28:19;;;;;;;7.35;5.07;;;;;;;30.11;44.81;94935.31;5041280;28;20717;-79
2022/06/03 04:31:14;;;;;;;10.85;4.97;;;;;;;29.76;44.74;94942.75;5053532;28;20305;-80
2022/06/03 04:33:54;;;;;;;9.02;5.15;;;;;;;30.94;42.56;94935.81;5053026;28;20195;-81
2022/06/03 04:36:57;;;;;;;8.88;5.30;;;;;;;30.02;44.50;94955.56;5052843;28;20227;-81
2022/06/03 04:40:03;;;;;;;7.07;5.20;;;;;;;29.93;44.74;94958.22;5043739;28;20646;-82
2022/06/03 04:43:11;;;;;;;8.48;5.38;;;;;;;30.01;44.09;94971.53;5042576;28;20211;-80
2022/06/03 04:46:08;;;;;;;9.70;6.25;;;;;;;29.44;45.08;94968.78;5033050;28;20201;-81
2022/06/03 04:49:12;;;;;;;10.07;5.90;;;;;;;28.46;47.20;94982.03;5038898;28;20235;-80
2022/06/03 04:52:14;;;;;;;9.45;5.82;;;;;;;29.10;45.81;94974.88;5052840;28;20285;-81
2022/06/03 04:55:15;;;;;;;10.45;6.43;;;;;;;30.13;43.96;94978.38;5053104;28;20230;-80
2022/06/03 04:58:48;;;;;;;11.15;7.07;;;;;;;31.55;41.30;94984.91;5043635;28;20705;-82
2022/06/03 05:02:18;;;;;;;8.77;6.15;;;;;;;32.14;40.37;94983.13;5039735;28;20273;-81
2022/06/03 05:05:23;;;;;;;11.93;5.82;;;;;;;32.02;40.66;94983.97;5010612;28;20280;-81
2022/06/03 05:08:27;;;;;;;9.45;5.93;;;;;;;32.11;40.05;94984.06;5009846;28;20237;-80
2022/06/03 05:11:37;;;;;;;10.70;6.05;;;;;;;33.24;38.38;94980.72;5009982;28;20622;-79
2022/06/03 05:14:54;;;;;;;10.95;5.90;;;;;;;32.34;39.27;94988.41;5052198;28;20244;-78
2022/06/03 05:17:50;;;;;;;7.28;5.43;;;;;;;32.17;39.60;94992.63;5052788;28;20207;-77
2022/06/03 05:20:55;;;;;;;8.20;5.68;;;;;;;33.21;38.10;94987.28;5052601;28;20569;-77
2022/06/03 05:24:12;;;;;;;9.88;4.80;;;;;;;33.10;38.35;94988.50;5044354;28;20219;-79
2022/06/03 05:27:12;;;;;;;10.10;4.55;;;;;;;33.26;37.70;94989.50;5051951;28;20232;-79
2022/06/03 05:30:15;;;;;;;10.00;4.68;;;;;;;30.03;43.61;95007.44;5041961;28;20285;-81
2022/06/03 05:33:20;;;;;;;5.15;3.80;;;;;;;30.10;44.06;95000.81;5052334;28;20214;-77
2022/06/03 05:36:28;;;;;;;5.88;3.72;;;;;;;31.30;41.61;95002.56;5038101;28;20293;-80
2022/06/03 05:39:42;;;;;;;8.48;4.38;;;;;;;31.75;40.50;95005.00;5016767;28;20208;-79
2022/06/03 05:42:34;;;;;;;7.30;4.32;;;;;;;32.57;39.23;95006.72;5052272;28;20207;-81
2022/06/03 05:45:46;;;;;;;10.90;5.03;;;;;;;30.53;43.30;95017.06;5051571;28;20706;-76
2022/06/03 05:48:21;;;;;;;7.88;4.03;;;;;;;30.31;43.17;95006.56;5051842;28;20216;-75
2022/06/03 05:50:53;;;;;;;7.85;4.38;;;;;;;32.61;39.07;94996.16;5052102;28;20219;-82
2022/06/03 05:53:34;;;;;;;5.35;3.95;;;;;;;34.07;37.16;94990.72;5047003;28;20201;-78
2022/06/03 05:56:23;;;;;;;9.15;3.92;;;;;;;33.14;38.83;94983.53;5044724;28;20728;-86
2022/06/03 05:58:59;;;;;;;7.85;4.40;;;;;;;33.86;37.32;94982.03;5041271;28;20207;-83
2022/06/03 06:01:45;;;;;;;7.07;3.90;;;;;;;32.51;39.06;94984.13;5052113;28;20249;-75
2022/06/03 06:04:20;;;;;;;7.72;4.55;;;;;;;33.84;37.14;94981.72;5052151;28;20261;-79
2022/06/03 06:07:06;;;;;;;7.47;3.80;;;;;;;35.57;34.92;94968.91;5051768;28;20226;-81
2022/06/03 06:09:51;;;;;;;8.93;4.47;;;;;;;35.11;35.36;94971.28;5050827;28;20257;-78
2022/06/03 06:12:45;;;;;;;9.63;3.83;;;;;;;35.06;35.56;94963.47;5051857;28;20223;-78
2022/06/03 06:15:31;;;;;;;7.25;4.10;;;;;;;35.54;34.01;94963.44;5042587;28;20657;-80
2022/06/03 06:18:09;;;;;;;9.65;4.45;;;;;;;35.36;34.77;94957.97;5050580;28;20223;-81
2022/06/03 06:21:03;;;;;;;7.15;4.10;;;;;;;36.13;33.58;94958.69;5040866;28;20230;-81
2022/06/03 06:23:41;;;;;;;9.18;4.07;;;;;;;37.09;32.48;94964.59;5043386;28;20215;-78
2022/06/03 06:26:32;;;;;;;6.63;3.85;;;;;;;35.77;33.86;94965.47;5045605;28;20255;-81
2022/06/03 06:29:28;;;;;;;10.55;4.00;;;;;;;36.48;32.96;94955.97;5036870;28;20640;-77
2022/06/03 06:32:48;;;;;;;8.43;4.28;;;;;;;36.79;32.32;94963.13;5051024;28;20241;-80
2022/06/03 06:35:47;;;;;;;6.28;3.83;;;;;;;37.33;31.57;94956.69;5045486;28;20223;-78
2022/06/03 06:38:22;;;;;;;7.50;3.70;;;;;;;37.23;32.18;94963.78;5033671;28;20277;-78
2022/06/03 06:41:02;;;;;;;7.32;4.00;;;;;;;36.26;32.77;94961.22;5041580;28;20621;-78
2022/06/03 06:43:40;;;;;;;10.20;4.50;;;;;;;36.82;32.95;94950.84;5036935;28;20192;-83
2022/06/03 06:46:14;;;;;;;7.25;3.80;;;;;;;36.51;33.13;94954.97;5041280;28;20726;-79
2022/06/03 06:48:52;;;;;;;7.60;3.50;;;;;;;34.29;35.51;94963.22;5038628;28;20314;-78
2022/06/03 06:51:51;;;;;;;6.70;3.80;;;;;;;34.56;36.38;94960.28;5039911;28;20203;-84
2022/06/03 06:54:27;;;;;;;5.63;3.53;;;;;;;32.86;37.36;94955.84;5043605;28;20270;-76
2022/06/03 06:56:59;;;;;;;7.82;4.00;;;;;;;34.80;36.24;94959.56;5037066;28;20219;-78
2022/06/03 06:59:32;;;;;;;5.32;3.40;;;;;;;34.18;36.35;94951.63;5050141;28;20208;-77
2022/06/03 07:02:04;;;;;;;6.82;4.20;;;;;;;35.32;35.17;94940.47;5050157;28;20198;-79
2022/06/03 07:04:36;;;;;;;6.30;3.80;;;;;;;36.17;32.72;94947.19;5051238;28;20348;-78
2022/06/03 07:07:12;;;;;;;8.77;3.45;;;;;;;36.77;32.47;94943.06;5044248;28;20627;-78
2022/06/03 07:09:50;;;;;;;6.85;3.50;;;;;;;37.01;32.51;94940.84;5047028;28;20276;-79
2022/06/03 07:12:19;;;;;;;5.28;3.40;;;;;;;36.40;32.32;94949.16;5042862;28;20725;-83
2022/06/03 07:14:56;;;;;;;4.90;3.53;;;;;;;34.35;35.11;94961.28;5042780;28;20231;-81
2022/06/03 07:20:23;;;;;;;6.70;3.90;;;;;;;34.74;34.07;94953.75;5044584;28;20190;-75
2022/06/03 07:22:55;;;;;;;5.95;3.47;;;;;;;34.08;35.58;94958.53;5042588;28;20583;-82
2022/06/03 07:25:29;;;;;;;8.70;3.80;;;;;;;33.55;35.96;94956.09;5044332;28;20216;-79
2022/06/03 07:28:00;;;;;;;9.15;3.95;;;;;;;31.73;39.58;94953.44;5044549;28;20621;-76
2022/06/03 07:30:37;;;;;;;8.77;4.30;;;;;;;32.61;37.78;94951.25;5043270;28;20639;-79
2022/06/03 07:33:10;;;;;;;6.97;3.88;;;;;;;33.03;37.00;94949.50;5045333;28;20310;-78
2022/06/03 07:35:44;;;;;;;7.78;4.00;;;;;;;33.99;36.81;94947.31;5054257;28;20204;-79
2022/06/03 07:38:20;;;;;;;8.00;4.10;;;;;;;34.85;35.06;94954.03;5054786;28;20698;-81
2022/06/03 07:40:52;;;;;;;6.38;5.03;;;;;;;35.08;34.15;94955.31;5054027;28;20534;-77
2022/06/03 07:43:25;;;;;;;5.47;3.70;;;;;;;36.19;32.63;94947.50;5054160;28;20708;-82
2022/06/03 07:45:56;;;;;;;6.95;4.05;;;;;;;34.80;33.99;94963.16;5053867;28;20647;-81
2022/06/03 07:48:26;;;;;;;5.53;3.92;;;;;;;34.68;34.21;94960.53;5053314;28;20854;-81
2022/06/03 07:50:57;;;;;;;6.97;3.65;;;;;;;35.09;34.14;94962.50;5044833;28;20209;-83
2022/06/03 07:53:33;;;;;;;8.48;3.85;;;;;;;34.64;35.42;94965.56;5046565;28;20223;-80
2022/06/03 07:56:01;;;;;;;6.50;4.05;;;;;;;32.53;38.25;94966.81;5043277;28;20535;-84
2022/06/03 07:58:32;;;;;;;7.28;4.30;;;;;;;31.21;40.31;94976.50;5053692;28;20632;-80
2022/06/03 08:00:59;;;;;;;7.93;4.25;;;;;;;31.52;39.86;94971.78;5053034;28;20239;-81
2022/06/03 08:03:33;;;;;;;8.20;4.93;;;;;;;31.61;40.35;94966.25;5053065;28;20199;-81
2022/06/03 08:06:04;;;;;;;6.78;3.83;;;;;;;29.51;43.43;94993.75;5053246;28;20691;-75
2022/06/03 08:11:28;;;;;;;6.53;3.97;;;;;;;29.30;45.87;94989.47;5053641;28;20645;-76
2022/06/03 08:13:58;;;;;;;6.70;3.90;;;;;;;30.83;42.65;94970.97;5052222;28;20243;-82
2022/06/03 08:16:31;;;;;;;6.60;3.75;;;;;;;30.95;40.27;94973.75;5052735;28;20200;-81
2022/06/03 08:19:01;;;;;;;8.07;4.32;;;;;;;32.33;38.53;94970.78;5053600;28;20282;-80
2022/06/03 08:21:32;;;;;;;8.80;4.13;;;;;;;33.04;37.13;94978.38;5053940;28;20200;-78
2022/06/03 08:24:02;;;;;;;8.85;4.00;;;;;;;31.76;40.21;94972.94;5051276;28;20335;-76
2022/06/03 08:26:32;;;;;;;5.60;4.07;;;;;;;30.71;40.27;94994.94;5051592;28;20293;-84
2022/06/03 08:29:09;;;;;;;6.45;4.05;;;;;;;31.85;39.11;94974.22;5050963;28;20704;-81
2022/06/03 08:31:38;;;;;;;7.18;3.97;;;;;;;31.50;40.06;94981.88;5045399;28;20231;-77
2022/06/03 08:34:09;;;;;;;8.38;4.20;;;;;;;30.65;40.93;94985.56;5049814;28;20258;-79
2022/06/03 08:36:39;;;;;;;5.10;4.30;;;;;;;29.22;43.31;94999.28;5048793;28;20911;-76
2022/06/03 08:39:10;;;;;;;5.60;4.13;;;;;;;29.78;42.16;94996.16;5053407;28;20207;-76
2022/06/03 08:41:56;;;;;;;6.03;3.90;;;;;;;30.67;41.78;94972.69;5053514;28;20203;-80
2022/06/03 08:44:44;;;;;;;6.20;3.92;;;;;;;30.89;40.03;94983.94;5053290;28;20196;-76
2022/06/03 08:47:16;;;;;;;5.00;3.90;;;;;;;30.39;40.88;94985.53;5040072;28;20231;-75
2022/06/03 08:49:56;;;;;;;9.43;4.28;;;;;;;30.55;41.23;94987.47;5051464;28;20764;-76
2022/06/03 08:52:27;;;;;;;7.00;3.90;;;;;;;30.99;41.06;94987.63;5052926;28;20222;-79
2022/06/03 08:54:57;;;;;;;6.40;4.10;;;;;;;30.57;41.41;94989.81;5052660;28;20200;-77
2022/06/03 08:57:33;;;;;;;7.28;4.60;;;;;;;29.93;42.84;94991.75;5053357;28;20254;-80
2022/06/03 09:00:07;;;;;;;7.82;4.40;;;;;;;29.37;43.85;95005.25;5052323;28;20187;-75
2022/06/03 09:02:38;;;;;;;7.65;4.78;;;;;;;28.43;47.55;94999.63;5052586;28;20227;-75
2022/06/03 09:05:10;;;;;;;7.00;4.70;;;;;;;28.74;46.98;95003.66;5039940;28;20246;-79
2022/06/03 09:07:40;;;;;;;11.93;4.85;;;;;;;29.27;45.64;94995.94;5052310;28;20285;-74
2022/06/03 09:10:14;;;;;;;5.78;3.90;;;;;;;27.96;48.26;94999.84;5052318;28;20268;-74
2022/06/03 09:12:52;;;;;;;10.75;4.22;;;;;;;27.38;49.23;95010.53;5049770;28;20653;-77
2022/06/03 09:15:23;;;;;;;8.23;4.32;;;;;;;26.82;50.80;95010.31;5050943;28;20191;-75
2022/06/03 09:17:54;;;;;;;7.53;4.72;;;;;;;26.65;49.73;95019.72;5051773;28;20658;-75
2022/06/03 09:20:26;;;;;;;6.18;3.67;;;;;;;26.33;51.48;95019.44;5052113;28;20203;-75
2022/06/03 09:23:00;;;;;;;6.38;4.53;;;;;;;26.49;49.25;95025.16;5039624;28;20297;-76
2022/06/03 09:25:31;;;;;;;6.60;4.60;;;;;;;27.02;50.04;95009.63;5052282;28;20325;-78
2022/06/03 09:28:01;;;;;;;5.93;3.95;;;;;;;27.26;49.15;95013.94;5052063;28;20235;-75
2022/06/03 09:30:33;;;;;;;6.28;4.55;;;;;;;27.07;50.56;95001.56;5051241;28;20318;-74
2022/06/03 09:33:05;;;;;;;8.65;4.03;;;;;;;27.08;50.96;95016.25;5051739;28;20222;-79
2022/06/03 09:35:34;;;;;;;5.18;4.53;;;;;;;26.94;51.87;95008.16;5051403;28;20229;-71
2022/06/03 09:38:03;;;;;;;6.70;4.60;;;;;;;27.21;52.05;95017.22;5051938;28;20238;-77
2022/06/03 09:40:32;;;;;;;7.57;4.35;;;;;;;27.25;51.05;95017.94;5051730;28;20258;-71
2022/06/03 09:43:07;;;;;;;6.07;4.43;;;;;;;27.68;51.54;95008.78;5051825;28;20207;-78
2022/06/03 09:45:36;;;;;;;12.68;5.03;;;;;;;27.26;51.58;95013.94;5051366;28;20230;-80
2022/06/03 09:48:04;;;;;;;6.88;4.30;;;;;;;27.57;52.04;95004.22;5052050;28;20204;-78
2022/06/03 09:50:33;;;;;;;5.78;4.05;;;;;;;27.39;49.84;95017.66;5052025;28;20239;-76
2022/06/03 09:53:07;;;;;;;8.90;4.85;;;;;;;26.74;50.99;95016.44;5051110;28;20703;-74
2022/06/03 09:55:37;;;;;;;5.03;3.42;;;;;;;26.62;49.59;95009.47;5051038;28;20207;-76
2022/06/03 09:58:10;;;;;;;4.47;3.50;;;;;;;26.86;49.18;95008.25;5051462;28;20204;-75
2022/06/03 10:00:43;;;;;;;8.43;4.10;;;;;;;27.16;49.57;95004.59;5051732;28;20211;-79
2022/06/03 10:03:10;;;;;;;6.50;4.20;;;;;;;26.92;48.77;95011.38;5051737;28;20220;-76
2022/06/03 10:05:38;;;;;;;7.53;3.90;;;;;;;26.68;49.28;95024.44;5051293;28;20295;-74
2022/06/03 10:08:08;;;;;;;5.68;3.95;;;;;;;26.38;50.14;95018.97;5050337;28;20883;-79
2022/06/03 10:13:39;;;;;;;5.93;3.90;;;;;;;26.46;50.19;95012.09;4979215;28;20245;-75
2022/06/03 10:16:08;;;;;;;5.97;3.83;;;;;;;27.13;49.76;95007.44;4986749;28;20712;-73
2022/06/03 10:18:40;;;;;;;4.40;4.00;;;;;;;27.40;48.73;95005.34;5017098;28;20235;-79
2022/06/03 10:21:28;;;;;;;6.63;3.75;;;;;;;28.19;46.03;95007.31;5050660;28;20678;-78
2022/06/03 10:23:57;;;;;;;6.57;4.05;;;;;;;29.16;44.63;95006.59;5050614;28;20276;-74
2022/06/03 10:26:26;;;;;;;6.95;4.05;;;;;;;29.02;44.11;95006.97;5051549;28;20304;-77
2022/06/03 10:28:57;;;;;;;6.90;4.32;;;;;;;28.47;46.56;95012.25;5051013;28;20235;-82
2022/06/03 10:31:30;;;;;;;5.70;3.83;;;;;;;27.92;46.80;95005.50;5051138;28;20192;-72
2022/06/03 10:34:00;;;;;;;8.63;4.40;;;;;;;27.72;47.47;95015.09;5050324;28;20188;-78
2022/06/03 10:36:29;;;;;;;8.52;4.72;;;;;;;27.81;48.45;95015.28;5050129;28;20207;-77
2022/06/03 10:38:56;;;;;;;7.57;4.57;;;;;;;27.29;48.93;95007.53;5050347;28;20219;-76
2022/06/03 10:41:31;;;;;;;6.93;4.30;;;;;;;27.33;48.80;94997.13;5050698;28;20203;-74
2022/06/03 10:44:00;;;;;;;5.60;4.10;;;;;;;27.15;48.89;95019.72;5039165;28;20219;-78
2022/06/03 10:46:27;;;;;;;5.28;4.45;;;;;;;27.51;48.39;95005.91;5050029;28;20741;-72
2022/06/03 10:48:54;;;;;;;9.43;4.63;;;;;;;27.26;48.05;95016.72;5049971;28;20274;-79
2022/06/03 11:01:06;;;;;;;9.10;4.43;;;;;;;27.81;48.99;94988.22;5048197;28;20223;-79
2022/06/03 11:02:31;;;;;;;9.40;4.00;;;;;;;28.81;45.10;94984.00;5050138;28;20281;-80
2022/06/03 11:05:13;;;;;;;6.97;4.13;;;;;;;28.49;41.68;94976.38;5050992;28;20228;-73
2022/06/03 11:07:41;;;;;;;5.72;3.95;;;;;;;28.24;43.87;94982.53;5050912;28;20199;-77
2022/06/03 11:10:13;;;;;;;7.32;3.90;;;;;;;28.53;44.00;94981.88;5050498;28;20231;-77
2022/06/03 11:12:42;;;;;;;5.78;3.80;;;;;;;28.76;41.15;94978.91;5049965;28;20204;-79
2022/06/03 11:15:31;;;;;;;6.97;3.67;;;;;;;28.95;40.92;94969.69;5050461;28;20188;-79
2022/06/03 11:17:59;;;;;;;5.70;3.97;;;;;;;29.85;40.04;94962.41;5050264;28;20200;-77
2022/06/03 11:20:35;;;;;;;6.10;3.92;;;;;;;30.55;40.08;94950.31;5050503;28;20232;-77
2022/06/03 11:23:04;;;;;;;5.93;4.07;;;;;;;31.04;38.45;94945.84;5033842;28;20615;-76
2022/06/03 11:25:32;;;;;;;4.82;3.83;;;;;;;31.22;38.89;94952.88;5045146;28;20206;-78
2022/06/03 11:28:02;;;;;;;5.32;3.85;;;;;;;31.04;39.61;94951.44;5050423;28;20227;-79
2022/06/03 11:30:37;;;;;;;8.15;3.75;;;;;;;31.02;38.21;94945.53;5050237;28;20224;-79
2022/06/03 11:33:08;;;;;;;10.15;4.20;;;;;;;31.55;38.91;94940.06;5050331;28;20625;-76
2022/06/03 11:35:41;;;;;;;5.95;4.00;;;;;;;31.22;39.12;94939.66;5050825;28;20391;-79
2022/06/03 11:38:12;;;;;;;10.30;4.05;;;;;;;30.50;40.93;94922.88;5050699;28;20195;-78
2022/06/03 11:40:43;;;;;;;5.78;3.75;;;;;;;29.78;39.32;94935.50;5037398;28;20213;-81
2022/06/03 11:43:16;;;;;;;5.63;4.07;;;;;;;28.89;41.59;94935.16;5050714;28;20230;-79
2022/06/03 11:45:48;;;;;;;6.03;4.20;;;;;;;28.79;41.83;94929.84;5050641;28;20567;-78
2022/06/03 11:48:22;;;;;;;7.93;3.97;;;;;;;29.10;41.13;94924.66;5050498;28;20227;-78
2022/06/03 11:50:48;;;;;;;6.55;3.90;;;;;;;29.15;40.93;94921.31;5049931;28;20628;-77
2022/06/03 11:53:20;;;;;;;5.07;3.83;;;;;;;29.04;41.09;94910.44;5044729;28;20681;-78
2022/06/03 11:55:47;;;;;;;5.65;3.50;;;;;;;29.36;41.48;94926.31;5044935;28;20200;-78
2022/06/03 11:58:18;;;;;;;4.85;3.70;;;;;;;29.41;41.10;94920.19;5043840;28;20204;-71
2022/06/03 12:00:55;;;;;;;5.00;3.72;;;;;;;28.92;41.72;94914.75;5049024;28;20287;-75
2022/06/03 12:03:33;;;;;;;6.03;3.70;;;;;;;29.06;40.96;94910.00;5041243;28;20234;-76
2022/06/03 12:06:04;;;;;;;4.95;3.80;;;;;;;29.57;40.86;94903.38;5044283;28;20731;-77
2022/06/03 12:08:43;;;;;;;6.75;3.88;;;;;;;29.32;41.47;94904.06;5044127;28;20224;-74
2022/06/03 12:13:14;;;;;;;4.38;3.80;;;;;;;29.38;40.41;94918.31;5051540;28;20285;-81
2022/06/03 12:14:25;;;;;;;5.25;3.90;;;;;;;30.18;39.11;94902.34;5053463;28;20323;-76
2022/06/03 12:16:56;;;;;;;6.28;3.90;;;;;;;30.43;39.49;94895.16;5057158;28;20271;-77
2022/06/03 12:19:37;;;;;;;5.07;3.45;;;;;;;30.74;38.99;94898.94;5055747;28;20710;-75
2022/06/03 12:22:33;;;;;;;4.80;3.80;;;;;;;30.95;37.97;94911.41;5053179;28;20250;-84
2022/06/03 12:25:00;;;;;;;5.50;3.67;;;;;;;30.10;39.08;94912.16;5043289;28;20192;-78
2022/06/03 12:27:31;;;;;;;4.88;3.33;;;;;;;30.19;37.97;94903.91;5046733;28;20231;-77
2022/06/03 12:30:34;;;;;;;4.30;3.72;;;;;;;29.92;38.78;94906.34;5043509;28;20617;-75
2022/06/03 12:33:08;;;;;;;6.85;3.60;;;;;;;28.71;40.62;94923.63;5043121;28;20188;-80
2022/06/03 12:36:01;;;;;;;7.65;3.95;;;;;;;28.47;40.36;94911.13;5042106;28;20201;-73
2022/06/03 12:38:46;;;;;;;7.00;3.80;;;;;;;28.27;40.53;94917.56;5043333;28;20204;-75
2022/06/03 12:41:59;;;;;;;4.15;3.30;;;;;;;28.57;40.12;94915.63;5043714;28;20571;-76
2022/06/03 12:44:39;;;;;;;5.03;3.13;;;;;;;28.63;38.54;94913.91;5056370;28;20543;-78
2022/06/03 12:47:39;;;;;;;4.95;3.45;;;;;;;28.39;40.33;94909.72;5040297;28;20609;-75
2022/06/03 12:50:37;;;;;;;6.78;3.42;;;;;;;28.05;41.50;94908.09;5052042;28;20690;-78
2022/06/03 12:53:35;;;;;;;5.28;3.40;;;;;;;28.22;41.42;94912.50;5051716;28;20242;-81
2022/06/03 12:56:05;;;;;;;5.68;3.80;;;;;;;28.12;41.08;94912.75;5051779;28;20200;-74
2022/06/03 12:58:53;;;;;;;5.00;3.47;;;;;;;28.51;39.26;94903.44;5051326;28;20632;-76
2022/06/03 13:01:33;;;;;;;7.28;4.15;;;;;;;28.99;40.06;94903.38;5047042;28;20261;-78
2022/06/03 13:04:44;;;;;;;4.07;3.35;;;;;;;28.76;40.73;94905.59;5052477;28;20334;-75
2022/06/03 13:07:35;;;;;;;5.30;3.47;;;;;;;28.39;41.23;94904.16;5042413;28;20203;-87
2022/06/03 13:10:22;;;;;;;4.75;3.33;;;;;;;28.30;43.29;94913.91;5039684;28;20637;-75